Time;durP1;ratioP1;P1;durP2;ratioP2;P2;SDS_P1;SDS_P2;PMS_P1;PMS_P2;Temp;Humidity;BMP_temperature;BMP_pressure;BME280_temperature;BME280_humidity;BME280_pressure;Samples;Min_cycle;Max_cycle;Signal;HPM_P1;HPM_P2
2022/12/20 00:00:43;;;;;;;58.37;20.23;;;;;;;;;;4950658;29;20047;-73
2022/12/20 00:03:09;;;;;;;52.40;19.37;;;;;;;;;;4949478;29;20042;-73
2022/12/20 00:05:39;;;;;;;53.30;19.07;;;;;;;;;;4950624;29;20043;-72
2022/12/20 00:08:05;;;;;;;52.07;18.43;;;;;;;;;;4950694;29;20065;-77
2022/12/20 00:10:38;;;;;;;50.40;19.13;;;;;;;;;;4951447;29;20042;-77
2022/12/20 00:13:05;;;;;;;57.93;18.77;;;;;;;;;;4949631;29;20392;-79
2022/12/20 00:15:31;;;;;;;63.23;21.07;;;;;;;;;;4950666;29;20023;-78
2022/12/20 00:17:57;;;;;;;53.87;19.93;;;;;;;;;;4951077;28;20775;-76
2022/12/20 00:20:23;;;;;;;61.57;19.97;;;;;;;;;;4950900;28;20146;-77
2022/12/20 00:22:49;;;;;;;53.13;18.87;;;;;;;;;;4954116;28;20083;-77
2022/12/20 00:25:15;;;;;;;55.67;18.83;;;;;;;;;;4954360;29;20032;-78
2022/12/20 00:27:40;;;;;;;58.70;20.43;;;;;;;;;;4954149;28;20027;-77
2022/12/20 00:30:06;;;;;;;53.33;19.63;;;;;;;;;;4954649;29;20031;-76
2022/12/20 00:32:32;;;;;;;51.13;18.23;;;;;;;;;;4953528;29;20110;-78
2022/12/20 00:34:57;;;;;;;48.73;19.63;;;;;;;;;;4953881;29;20111;-77
2022/12/20 00:37:22;;;;;;;56.50;20.70;;;;;;;;;;4953031;28;20057;-77
2022/12/20 00:39:48;;;;;;;48.93;18.77;;;;;;;;;;4937832;29;20023;-77
2022/12/20 00:42:14;;;;;;;53.93;20.33;;;;;;;;;;4937554;29;20458;-77
2022/12/20 00:44:40;;;;;;;51.90;19.90;;;;;;;;;;4953840;29;20136;-77
2022/12/20 00:47:05;;;;;;;57.07;19.17;;;;;;;;;;4954775;29;20463;-76
2022/12/20 00:49:31;;;;;;;62.67;21.07;;;;;;;;;;4936677;29;20031;-77
2022/12/20 00:51:56;;;;;;;59.40;18.30;;;;;;;;;;4952283;29;20038;-77
2022/12/20 00:54:22;;;;;;;51.93;19.47;;;;;;;;;;4953556;29;20035;-77
2022/12/20 00:56:47;;;;;;;51.57;18.73;;;;;;;;;;4953736;29;20031;-76
2022/12/20 00:59:13;;;;;;;59.17;20.13;;;;;;;;;;4953832;28;20028;-77
2022/12/20 01:01:38;;;;;;;54.07;19.07;;;;;;;;;;4953308;29;20470;-76
2022/12/20 01:04:04;;;;;;;58.13;20.30;;;;;;;;;;4953723;28;20031;-76
2022/12/20 01:06:30;;;;;;;46.57;18.30;;;;;;;;;;4935760;29;20476;-77
2022/12/20 01:08:56;;;;;;;56.33;19.50;;;;;;;;;;4953564;29;20027;-76
2022/12/20 01:11:31;;;;;;;47.83;18.87;;;;;;;;;;4953112;29;20031;-76
2022/12/20 01:13:59;;;;;;;56.57;18.73;;;;;;;;;;4936067;29;20030;-77
2022/12/20 01:16:36;;;;;;;52.10;19.80;;;;;;;;;;4935581;29;20032;-77
2022/12/20 01:19:02;;;;;;;60.27;20.70;;;;;;;;;;4951861;29;20842;-77
2022/12/20 01:21:28;;;;;;;52.63;19.87;;;;;;;;;;4953388;29;20036;-77
2022/12/20 01:23:54;;;;;;;51.23;19.43;;;;;;;;;;4953558;29;20042;-75
2022/12/20 01:26:22;;;;;;;50.40;19.87;;;;;;;;;;4951686;29;20026;-75
2022/12/20 01:28:51;;;;;;;50.83;19.23;;;;;;;;;;4951823;28;20539;-77
2022/12/20 01:31:18;;;;;;;55.60;18.90;;;;;;;;;;4953115;29;20031;-77
2022/12/20 01:33:46;;;;;;;55.93;20.87;;;;;;;;;;4951994;28;20122;-77
2022/12/20 01:36:15;;;;;;;64.87;21.03;;;;;;;;;;4951206;29;20031;-77
2022/12/20 01:38:41;;;;;;;50.50;19.93;;;;;;;;;;4952419;29;20031;-77
2022/12/20 01:41:07;;;;;;;59.50;21.13;;;;;;;;;;4952776;29;20030;-78
2022/12/20 01:43:46;;;;;;;53.90;19.47;;;;;;;;;;4951809;29;20059;-77
2022/12/20 01:46:11;;;;;;;53.63;20.13;;;;;;;;;;4952315;28;20087;-77
2022/12/20 01:48:37;;;;;;;51.87;19.63;;;;;;;;;;4966952;28;20437;-77
2022/12/20 01:51:03;;;;;;;66.17;19.87;;;;;;;;;;4951048;29;20039;-77
2022/12/20 01:53:29;;;;;;;57.57;21.57;;;;;;;;;;4954103;29;20111;-76
2022/12/20 01:55:58;;;;;;;54.77;21.63;;;;;;;;;;4952161;28;20066;-77
2022/12/20 01:58:24;;;;;;;58.40;20.07;;;;;;;;;;4966609;28;20046;-77
2022/12/20 02:00:49;;;;;;;58.03;20.80;;;;;;;;;;4952251;28;20380;-77
2022/12/20 02:03:15;;;;;;;58.33;19.40;;;;;;;;;;4952132;28;20031;-77
2022/12/20 02:05:46;;;;;;;61.47;20.77;;;;;;;;;;4950379;29;20027;-77
2022/12/20 02:08:14;;;;;;;56.23;17.10;;;;;;;;;;4952240;28;20023;-77
2022/12/20 02:11:06;;;;;;;56.77;20.00;;;;;;;;;;4951570;28;20035;-76
2022/12/20 02:13:56;;;;;;;48.67;18.57;;;;;;;;;;4951270;28;20023;-78
2022/12/20 02:16:25;;;;;;;50.60;19.17;;;;;;;;;;4950074;29;20035;-76
2022/12/20 02:18:57;;;;;;;55.97;19.37;;;;;;;;;;4951380;28;20031;-77
2022/12/20 02:21:31;;;;;;;59.87;20.37;;;;;;;;;;4951515;28;20114;-76
2022/12/20 02:24:25;;;;;;;54.70;19.87;;;;;;;;;;4952245;28;20687;-76
2022/12/20 02:27:06;;;;;;;56.07;19.20;;;;;;;;;;4952058;28;20085;-76
2022/12/20 02:29:42;;;;;;;52.07;21.00;;;;;;;;;;4950314;29;20178;-76
2022/12/20 02:32:25;;;;;;;52.13;19.00;;;;;;;;;;4966462;28;20027;-77
2022/12/20 02:34:51;;;;;;;53.80;19.87;;;;;;;;;;4952189;29;20036;-77
2022/12/20 02:37:17;;;;;;;50.03;20.37;;;;;;;;;;4961837;28;20038;-77
2022/12/20 02:39:44;;;;;;;58.53;20.77;;;;;;;;;;4934692;29;20031;-76
2022/12/20 02:42:12;;;;;;;59.90;20.47;;;;;;;;;;4953708;29;20086;-75
2022/12/20 02:47:38;;;;;;;52.20;19.87;;;;;;;;;;4954473;29;20059;-76
2022/12/20 02:50:06;;;;;;;54.67;19.07;;;;;;;;;;4950524;29;20023;-78
2022/12/20 02:52:32;;;;;;;58.67;20.20;;;;;;;;;;4951823;29;20060;-78
2022/12/20 02:54:59;;;;;;;56.33;19.47;;;;;;;;;;4934714;29;20054;-77
2022/12/20 02:57:45;;;;;;;59.70;20.47;;;;;;;;;;4951062;29;20028;-78
2022/12/20 03:00:17;;;;;;;57.17;20.90;;;;;;;;;;4950011;29;20046;-76
2022/12/20 03:05:28;;;;;;;59.93;16.83;;;;;;;;;;4952147;29;20354;-75
2022/12/20 03:07:54;;;;;;;54.57;19.53;;;;;;;;;;4951744;29;20023;-74
2022/12/20 03:10:20;;;;;;;55.47;20.50;;;;;;;;;;4951774;29;20523;-75
2022/12/20 03:12:46;;;;;;;55.50;19.80;;;;;;;;;;4950092;29;20118;-73
2022/12/20 03:15:12;;;;;;;53.30;18.00;;;;;;;;;;4951646;29;20106;-73
2022/12/20 03:17:37;;;;;;;49.17;18.37;;;;;;;;;;4951275;29;20046;-73
2022/12/20 03:20:07;;;;;;;56.57;20.50;;;;;;;;;;4951551;29;20043;-73
2022/12/20 03:22:33;;;;;;;53.40;19.13;;;;;;;;;;4950063;29;20031;-73
2022/12/20 03:24:59;;;;;;;56.30;19.67;;;;;;;;;;4951206;29;20452;-73
2022/12/20 03:27:27;;;;;;;52.07;20.10;;;;;;;;;;4933708;29;20042;-74
2022/12/20 03:29:54;;;;;;;52.57;20.53;;;;;;;;;;4951857;29;20035;-74
2022/12/20 03:32:20;;;;;;;55.47;19.43;;;;;;;;;;4950943;29;20047;-73
2022/12/20 03:34:46;;;;;;;53.97;18.27;;;;;;;;;;4949022;29;20028;-74
2022/12/20 03:37:11;;;;;;;64.47;21.10;;;;;;;;;;4937289;29;20039;-73
2022/12/20 03:39:37;;;;;;;58.53;19.63;;;;;;;;;;4950931;28;20034;-74
2022/12/20 03:42:03;;;;;;;57.13;20.20;;;;;;;;;;4950995;28;20066;-73
2022/12/20 03:44:28;;;;;;;51.47;20.20;;;;;;;;;;4951076;28;20035;-73
2022/12/20 03:46:54;;;;;;;48.23;18.20;;;;;;;;;;4951177;28;20035;-73
2022/12/20 03:49:19;;;;;;;61.70;20.60;;;;;;;;;;4965976;28;20090;-73
2022/12/20 03:51:45;;;;;;;58.00;19.13;;;;;;;;;;4965624;28;20082;-73
2022/12/20 03:54:10;;;;;;;51.37;20.27;;;;;;;;;;4951052;28;20110;-73
2022/12/20 03:56:36;;;;;;;50.50;19.13;;;;;;;;;;4952464;28;20557;-73
2022/12/20 03:59:01;;;;;;;50.93;18.60;;;;;;;;;;4954758;28;20587;-74
2022/12/20 04:01:28;;;;;;;53.63;20.07;;;;;;;;;;4969481;28;20031;-75
2022/12/20 04:03:54;;;;;;;59.63;19.43;;;;;;;;;;4954453;29;20038;-74
2022/12/20 04:06:21;;;;;;;50.13;19.53;;;;;;;;;;4952976;29;20117;-73
2022/12/20 04:08:47;;;;;;;56.43;19.70;;;;;;;;;;4963038;28;20027;-73
2022/12/20 04:11:15;;;;;;;49.47;17.23;;;;;;;;;;4935101;29;20055;-74
2022/12/20 04:13:52;;;;;;;47.23;17.83;;;;;;;;;;4935128;29;20146;-74
2022/12/20 04:16:20;;;;;;;53.03;18.30;;;;;;;;;;4917909;29;20420;-74
2022/12/20 04:18:45;;;;;;;54.47;17.80;;;;;;;;;;4933682;29;20039;-74
2022/12/20 04:21:12;;;;;;;47.53;17.73;;;;;;;;;;4918100;29;20031;-73
2022/12/20 04:23:39;;;;;;;50.33;19.17;;;;;;;;;;4933757;29;20046;-73
2022/12/20 04:26:06;;;;;;;51.43;19.17;;;;;;;;;;4935095;29;20102;-74
2022/12/20 04:28:32;;;;;;;50.83;19.30;;;;;;;;;;4934855;29;20103;-74
2022/12/20 04:30:58;;;;;;;53.70;19.73;;;;;;;;;;4935347;29;20492;-74
2022/12/20 04:33:25;;;;;;;50.57;17.77;;;;;;;;;;4933290;29;20115;-73
2022/12/20 04:35:50;;;;;;;49.03;18.83;;;;;;;;;;4935081;29;20112;-73
2022/12/20 04:38:17;;;;;;;61.97;19.27;;;;;;;;;;4950442;29;20092;-74
2022/12/20 04:40:42;;;;;;;61.73;18.83;;;;;;;;;;4954196;28;20031;-75
2022/12/20 04:43:08;;;;;;;51.30;20.33;;;;;;;;;;4952741;29;20055;-74
2022/12/20 04:45:34;;;;;;;53.70;19.07;;;;;;;;;;4953757;29;20034;-74
2022/12/20 04:48:00;;;;;;;55.37;18.67;;;;;;;;;;4953584;28;20099;-73
2022/12/20 04:50:25;;;;;;;54.57;20.67;;;;;;;;;;4967997;28;20090;-73
2022/12/20 04:55:39;;;;;;;47.87;20.20;;;;;;;;;;4953239;29;20045;-73
2022/12/20 04:58:05;;;;;;;50.93;18.80;;;;;;;;;;4953288;28;20094;-74
2022/12/20 05:00:31;;;;;;;54.40;20.27;;;;;;;;;;4951054;28;20055;-74
2022/12/20 05:02:56;;;;;;;57.00;20.37;;;;;;;;;;4948620;29;20071;-73
2022/12/20 05:05:22;;;;;;;50.73;20.70;;;;;;;;;;4937143;28;20320;-74
2022/12/20 05:07:48;;;;;;;48.20;17.80;;;;;;;;;;4948074;28;20031;-74
2022/12/20 05:10:20;;;;;;;53.80;18.90;;;;;;;;;;4936845;29;20038;-76
2022/12/20 05:12:46;;;;;;;47.47;16.50;;;;;;;;;;4946437;28;20122;-76
2022/12/20 05:15:12;;;;;;;50.13;17.83;;;;;;;;;;4947417;28;20039;-75
2022/12/20 05:17:37;;;;;;;49.60;17.77;;;;;;;;;;4931942;29;20035;-77
2022/12/20 05:20:04;;;;;;;58.30;20.43;;;;;;;;;;4933018;29;20379;-82
2022/12/20 05:28:10;;;;;;;46.13;18.20;;;;;;;;;;4954128;29;20360;-82
2022/12/20 05:30:35;;;;;;;48.87;18.80;;;;;;;;;;4948794;29;20035;-80
2022/12/20 05:33:01;;;;;;;47.43;17.43;;;;;;;;;;4935821;29;20107;-80
2022/12/20 05:35:26;;;;;;;53.07;19.30;;;;;;;;;;4949585;29;20035;-80
2022/12/20 05:37:53;;;;;;;53.73;19.83;;;;;;;;;;4948567;29;20062;-78
2022/12/20 05:40:19;;;;;;;51.27;19.50;;;;;;;;;;4932681;29;20096;-79
2022/12/20 05:42:44;;;;;;;50.40;18.93;;;;;;;;;;4947053;28;20055;-78
2022/12/20 05:45:10;;;;;;;49.60;19.53;;;;;;;;;;4947107;29;20036;-79
2022/12/20 05:47:36;;;;;;;53.50;20.47;;;;;;;;;;4950358;29;20059;-79
2022/12/20 05:50:04;;;;;;;56.73;21.17;;;;;;;;;;4942243;29;20031;-78
2022/12/20 05:52:30;;;;;;;49.33;20.47;;;;;;;;;;4933313;29;20439;-78
2022/12/20 05:54:55;;;;;;;49.37;20.53;;;;;;;;;;4933949;29;20491;-75
2022/12/20 05:57:21;;;;;;;57.97;21.50;;;;;;;;;;4947298;29;20114;-78
2022/12/20 05:59:47;;;;;;;60.77;21.07;;;;;;;;;;4945093;29;20049;-73
2022/12/20 06:02:13;;;;;;;54.93;21.07;;;;;;;;;;4933056;29;20035;-77
2022/12/20 06:04:38;;;;;;;55.47;21.93;;;;;;;;;;4939576;29;20019;-78
2022/12/20 06:07:04;;;;;;;55.57;19.47;;;;;;;;;;4938004;29;20042;-78
2022/12/20 06:09:30;;;;;;;55.67;20.30;;;;;;;;;;4928527;29;20443;-77
2022/12/20 06:11:56;;;;;;;53.07;18.83;;;;;;;;;;4950378;29;20063;-78
2022/12/20 06:14:23;;;;;;;46.67;18.33;;;;;;;;;;4939137;29;20023;-80
2022/12/20 06:16:49;;;;;;;51.77;17.80;;;;;;;;;;4937826;29;20056;-80
2022/12/20 06:19:14;;;;;;;48.90;19.20;;;;;;;;;;4950616;28;20073;-80
2022/12/20 06:21:44;;;;;;;44.80;18.37;;;;;;;;;;4949203;29;20106;-80
2022/12/20 06:24:10;;;;;;;54.63;20.83;;;;;;;;;;4938025;29;20122;-79
2022/12/20 06:26:41;;;;;;;51.70;18.37;;;;;;;;;;4935762;29;20110;-83
2022/12/20 06:29:09;;;;;;;48.67;18.98;;;;;;;;;;4951548;29;20031;-79
2022/12/20 06:31:34;;;;;;;53.87;19.43;;;;;;;;;;4950333;29;20043;-79
2022/12/20 06:34:00;;;;;;;50.10;19.07;;;;;;;;;;4941280;28;20031;-79
2022/12/20 06:36:25;;;;;;;52.73;18.83;;;;;;;;;;4930315;29;20398;-76
2022/12/20 06:38:51;;;;;;;47.70;18.73;;;;;;;;;;4947397;28;20046;-76
2022/12/20 06:41:16;;;;;;;54.50;20.20;;;;;;;;;;4929964;28;20039;-76
2022/12/20 06:43:43;;;;;;;50.70;19.27;;;;;;;;;;4942512;28;20055;-78
2022/12/20 06:46:09;;;;;;;57.67;18.93;;;;;;;;;;4933709;29;20051;-78
2022/12/20 06:48:34;;;;;;;54.87;21.07;;;;;;;;;;4934842;28;20097;-78
2022/12/20 06:51:01;;;;;;;47.47;18.60;;;;;;;;;;4944980;29;20550;-78
2022/12/20 06:53:27;;;;;;;57.47;20.03;;;;;;;;;;4943873;28;20355;-75
2022/12/20 06:55:52;;;;;;;50.93;18.20;;;;;;;;;;4929658;29;20031;-74
2022/12/20 06:58:19;;;;;;;49.30;19.00;;;;;;;;;;4931857;28;20031;-77
2022/12/20 07:00:50;;;;;;;51.93;18.50;;;;;;;;;;4930297;29;20031;-80
2022/12/20 07:03:16;;;;;;;54.90;19.87;;;;;;;;;;4929054;29;20495;-79
2022/12/20 07:05:42;;;;;;;57.33;19.13;;;;;;;;;;4942116;28;20074;-76
2022/12/20 07:08:08;;;;;;;52.63;19.00;;;;;;;;;;4940830;28;20065;-76
2022/12/20 07:10:35;;;;;;;55.90;19.93;;;;;;;;;;4944125;28;20042;-80
2022/12/20 07:13:00;;;;;;;50.10;18.47;;;;;;;;;;4941112;28;20035;-76
2022/12/20 07:15:26;;;;;;;52.47;19.57;;;;;;;;;;4937721;28;20519;-77
2022/12/20 07:17:51;;;;;;;63.90;20.43;;;;;;;;;;4928044;29;20318;-79
2022/12/20 07:20:18;;;;;;;54.90;20.03;;;;;;;;;;4941629;28;20035;-78
2022/12/20 07:22:45;;;;;;;51.80;17.57;;;;;;;;;;4944967;28;20039;-75
2022/12/20 07:25:11;;;;;;;54.87;18.37;;;;;;;;;;4941167;28;20507;-76
2022/12/20 07:27:38;;;;;;;53.43;18.57;;;;;;;;;;4937322;29;20058;-76
2022/12/20 07:30:15;;;;;;;66.20;25.00;;;;;;;;;;4937882;28;20032;-78
2022/12/20 07:32:41;;;;;;;64.17;22.77;;;;;;;;;;4941081;28;20039;-75
2022/12/20 07:35:07;;;;;;;58.20;21.30;;;;;;;;;;4941095;28;20079;-74
2022/12/20 07:37:32;;;;;;;58.60;18.80;;;;;;;;;;4939019;28;20451;-75
2022/12/20 07:40:04;;;;;;;59.03;20.30;;;;;;;;;;4944809;28;20445;-80
2022/12/20 07:42:29;;;;;;;53.53;21.35;;;;;;;;;;4946388;28;20051;-75
2022/12/20 07:44:55;;;;;;;45.37;18.53;;;;;;;;;;4949245;28;20057;-75
2022/12/20 07:47:21;;;;;;;54.30;21.57;;;;;;;;;;4949382;28;20042;-74
2022/12/20 07:49:50;;;;;;;56.60;21.53;;;;;;;;;;4946694;29;20027;-76
2022/12/20 07:52:20;;;;;;;49.37;18.50;;;;;;;;;;4945528;28;20038;-74
2022/12/20 07:54:53;;;;;;;50.00;19.43;;;;;;;;;;4945664;29;20112;-74
2022/12/20 07:57:28;;;;;;;59.23;20.70;;;;;;;;;;4951357;28;20048;-75
2022/12/20 07:59:57;;;;;;;53.87;19.90;;;;;;;;;;4934556;29;20058;-74
2022/12/20 08:02:31;;;;;;;60.77;21.17;;;;;;;;;;4952265;28;20034;-76
2022/12/20 08:04:57;;;;;;;48.60;18.87;;;;;;;;;;4934947;29;20039;-75
2022/12/20 08:07:23;;;;;;;58.07;20.83;;;;;;;;;;4951249;29;20030;-74
2022/12/20 08:09:50;;;;;;;62.53;20.23;;;;;;;;;;4939836;28;20290;-74
2022/12/20 08:12:17;;;;;;;50.17;20.40;;;;;;;;;;4949945;29;20101;-74
2022/12/20 08:14:43;;;;;;;53.57;19.23;;;;;;;;;;4942419;29;20035;-74
2022/12/20 08:17:10;;;;;;;56.67;21.33;;;;;;;;;;4933222;29;20049;-75
2022/12/20 08:19:36;;;;;;;51.70;19.73;;;;;;;;;;4947784;29;20542;-73
2022/12/20 08:22:05;;;;;;;49.93;20.60;;;;;;;;;;4926673;29;20068;-77
2022/12/20 08:24:32;;;;;;;51.23;22.10;;;;;;;;;;4947104;28;20372;-77
2022/12/20 08:26:57;;;;;;;54.60;20.00;;;;;;;;;;4940721;29;20046;-76
2022/12/20 08:29:23;;;;;;;55.80;22.50;;;;;;;;;;4943907;29;20063;-78
2022/12/20 08:31:48;;;;;;;59.57;21.10;;;;;;;;;;4949208;28;20693;-76
2022/12/20 08:34:14;;;;;;;54.20;21.73;;;;;;;;;;4948623;29;20035;-77
2022/12/20 08:36:39;;;;;;;52.90;20.60;;;;;;;;;;4947396;28;20038;-77
2022/12/20 08:39:06;;;;;;;48.03;18.83;;;;;;;;;;4947049;28;20086;-77
2022/12/20 08:41:35;;;;;;;54.13;18.90;;;;;;;;;;4941537;28;20075;-77
2022/12/20 08:44:01;;;;;;;57.63;20.33;;;;;;;;;;4947957;28;20055;-77
2022/12/20 08:46:26;;;;;;;54.27;19.47;;;;;;;;;;4908567;29;20058;-76
2022/12/20 08:48:52;;;;;;;57.97;20.83;;;;;;;;;;4945304;28;20035;-77
2022/12/20 08:51:17;;;;;;;53.50;20.97;;;;;;;;;;4932068;29;20783;-76
2022/12/20 08:53:43;;;;;;;51.70;21.17;;;;;;;;;;4947238;29;20332;-78
2022/12/20 08:56:14;;;;;;;61.73;21.40;;;;;;;;;;4942520;28;20038;-76
2022/12/20 08:58:41;;;;;;;60.25;22.13;;;;;;;;;;4938506;29;20035;-77
2022/12/20 09:01:11;;;;;;;64.93;22.07;;;;;;;;;;4936856;29;20027;-75
2022/12/20 09:03:37;;;;;;;55.73;20.30;;;;;;;;;;4952704;28;20023;-76
2022/12/20 09:06:22;;;;;;;70.73;26.83;;;;;;;;;;4947089;28;20043;-76
2022/12/20 09:08:48;;;;;;;55.70;20.60;;;;;;;;;;4937428;28;20062;-76
2022/12/20 09:11:15;;;;;;;59.33;23.30;;;;;;;;;;4941530;29;20031;-77
2022/12/20 09:13:42;;;;;;;48.93;19.07;;;;;;;;;;4945882;28;20106;-77
2022/12/20 09:16:11;;;;;;;51.67;21.00;;;;;;;;;;4941671;28;20114;-76
2022/12/20 09:18:36;;;;;;;55.57;21.87;;;;;;;;;;4943114;28;20114;-79
2022/12/20 09:21:04;;;;;;;54.97;19.63;;;;;;;;;;4940784;29;20062;-78
2022/12/20 09:23:30;;;;;;;62.73;20.83;;;;;;;;;;4945387;28;20042;-77
2022/12/20 09:26:04;;;;;;;53.03;20.80;;;;;;;;;;4943098;28;20033;-76
2022/12/20 09:28:31;;;;;;;53.80;19.07;;;;;;;;;;4932959;29;20074;-76
2022/12/20 09:31:01;;;;;;;53.83;20.80;;;;;;;;;;4940129;29;20695;-76
2022/12/20 09:33:28;;;;;;;51.47;17.27;;;;;;;;;;4928821;29;20070;-75
2022/12/20 09:35:57;;;;;;;53.90;20.27;;;;;;;;;;4927893;29;20026;-76
2022/12/20 09:38:23;;;;;;;55.67;20.27;;;;;;;;;;4927885;29;20149;-76
2022/12/20 09:40:51;;;;;;;56.13;18.93;;;;;;;;;;4939476;29;20760;-77
2022/12/20 09:43:17;;;;;;;48.90;18.33;;;;;;;;;;4921697;29;20052;-75
2022/12/20 09:45:46;;;;;;;55.10;19.27;;;;;;;;;;4916789;28;20059;-75
2022/12/20 09:48:36;;;;;;;53.23;21.37;;;;;;;;;;4919191;29;20952;-76
2022/12/20 09:51:24;;;;;;;50.67;19.00;;;;;;;;;;4916865;29;20083;-75
2022/12/20 09:54:27;;;;;;;51.70;19.67;;;;;;;;;;4936826;29;20028;-75
2022/12/20 09:56:55;;;;;;;51.20;19.40;;;;;;;;;;4924286;29;20078;-75
2022/12/20 09:59:21;;;;;;;49.37;18.50;;;;;;;;;;4922295;29;20059;-76
2022/12/20 10:01:49;;;;;;;50.77;18.93;;;;;;;;;;4921105;29;20135;-76
2022/12/20 10:04:27;;;;;;;52.97;19.60;;;;;;;;;;4936662;29;20028;-76
2022/12/20 10:07:32;;;;;;;59.93;20.93;;;;;;;;;;4941939;28;20492;-79
2022/12/20 10:10:19;;;;;;;46.00;18.67;;;;;;;;;;4919395;29;20066;-76
2022/12/20 10:13:12;;;;;;;49.93;18.93;;;;;;;;;;4921597;29;20019;-79
2022/12/20 10:15:53;;;;;;;50.53;17.47;;;;;;;;;;4934375;28;20050;-78
2022/12/20 10:18:21;;;;;;;53.60;19.93;;;;;;;;;;4933003;28;20050;-77
2022/12/20 10:20:55;;;;;;;57.77;20.83;;;;;;;;;;4919911;29;20096;-75
2022/12/20 10:23:29;;;;;;;48.80;19.83;;;;;;;;;;4938917;29;20471;-76
2022/12/20 10:25:57;;;;;;;57.27;19.97;;;;;;;;;;4938683;28;20066;-77
2022/12/20 10:28:37;;;;;;;54.47;21.30;;;;;;;;;;4918842;29;20031;-77
2022/12/20 10:31:12;;;;;;;59.97;20.10;;;;;;;;;;4939415;29;20091;-77
2022/12/20 10:33:39;;;;;;;49.00;19.57;;;;;;;;;;4920539;29;20024;-79
2022/12/20 10:36:27;;;;;;;49.10;19.17;;;;;;;;;;4919436;29;20102;-77
2022/12/20 10:38:55;;;;;;;54.70;20.93;;;;;;;;;;4943572;28;20035;-76
2022/12/20 10:41:28;;;;;;;59.30;20.93;;;;;;;;;;4921897;29;20042;-78
2022/12/20 10:44:01;;;;;;;58.50;21.53;;;;;;;;;;4938742;28;20517;-77
2022/12/20 10:46:44;;;;;;;55.87;20.40;;;;;;;;;;4918164;28;20073;-76
2022/12/20 10:49:34;;;;;;;50.75;18.75;;;;;;;;;;4932606;28;20046;-77
2022/12/20 10:52:08;;;;;;;47.40;18.33;;;;;;;;;;4945709;28;20024;-77
2022/12/20 10:54:36;;;;;;;53.57;20.40;;;;;;;;;;4943724;29;20019;-76
2022/12/20 10:57:18;;;;;;;52.33;18.03;;;;;;;;;;4931799;28;20069;-76
2022/12/20 10:59:49;;;;;;;50.53;18.50;;;;;;;;;;4936639;28;20773;-78
2022/12/20 11:02:30;;;;;;;56.47;18.97;;;;;;;;;;4940371;29;20090;-76
2022/12/20 11:05:17;;;;;;;55.07;19.57;;;;;;;;;;4932905;28;20031;-77
2022/12/20 11:07:56;;;;;;;49.93;17.30;;;;;;;;;;4938081;29;20031;-77
2022/12/20 11:10:28;;;;;;;51.03;18.17;;;;;;;;;;4936849;28;20039;-76
2022/12/20 11:12:59;;;;;;;57.90;21.10;;;;;;;;;;4939270;29;20027;-77
2022/12/20 11:15:27;;;;;;;47.60;19.03;;;;;;;;;;4918233;28;20062;-77
2022/12/20 11:18:00;;;;;;;52.60;18.50;;;;;;;;;;4935100;29;20106;-77
2022/12/20 11:20:54;;;;;;;57.43;19.00;;;;;;;;;;4923828;29;20047;-78
2022/12/20 11:23:19;;;;;;;56.53;20.97;;;;;;;;;;4942070;29;20107;-78
2022/12/20 11:26:10;;;;;;;55.80;21.40;;;;;;;;;;4939727;28;20634;-77
2022/12/20 11:28:47;;;;;;;51.57;19.30;;;;;;;;;;4915488;28;20685;-79
2022/12/20 11:31:13;;;;;;;53.50;18.20;;;;;;;;;;4920391;29;20031;-77
2022/12/20 11:34:03;;;;;;;57.83;20.87;;;;;;;;;;4953014;28;20045;-78
2022/12/20 11:36:48;;;;;;;46.87;17.77;;;;;;;;;;4940765;28;20094;-77
2022/12/20 11:39:32;;;;;;;54.83;20.33;;;;;;;;;;4932757;29;20039;-78
2022/12/20 11:42:16;;;;;;;51.47;18.00;;;;;;;;;;4882784;29;1292452;-78
2022/12/20 11:45:01;;;;;;;52.20;19.73;;;;;;;;;;4942070;29;20036;-76
2022/12/20 11:48:02;;;;;;;45.10;18.63;;;;;;;;;;4936610;28;20051;-76
2022/12/20 11:51:04;;;;;;;53.90;19.07;;;;;;;;;;4941487;29;20053;-79
2022/12/20 11:53:36;;;;;;;50.95;19.02;;;;;;;;;;4930496;29;20035;-77
2022/12/20 11:56:09;;;;;;;49.78;19.05;;;;;;;;;;4921942;29;20471;-78
2022/12/20 11:58:38;;;;;;;53.47;19.33;;;;;;;;;;4930136;29;20046;-78
2022/12/20 12:01:13;;;;;;;53.30;19.90;;;;;;;;;;4929134;29;20027;-77
2022/12/20 12:03:59;;;;;;;48.63;18.23;;;;;;;;;;4927692;28;20098;-77
2022/12/20 12:06:32;;;;;;;51.93;19.60;;;;;;;;;;4947516;28;20042;-77
2022/12/20 12:09:11;;;;;;;58.20;20.07;;;;;;;;;;4940849;28;20058;-77
2022/12/20 12:11:57;;;;;;;54.53;20.43;;;;;;;;;;4944896;29;20035;-78
2022/12/20 12:14:29;;;;;;;56.37;20.57;;;;;;;;;;4924977;29;20087;-78
2022/12/20 12:16:58;;;;;;;50.08;21.00;;;;;;;;;;4935914;28;20868;-78
2022/12/20 12:19:28;;;;;;;52.87;18.87;;;;;;;;;;4930231;28;20093;-75
2022/12/20 12:22:04;;;;;;;59.40;20.40;;;;;;;;;;4933683;28;20043;-79
2022/12/20 12:24:37;;;;;;;87.10;37.83;;;;;;;;;;4927922;29;20027;-78
2022/12/20 12:27:17;;;;;;;54.67;20.37;;;;;;;;;;4925288;29;20098;-80
2022/12/20 12:29:42;;;;;;;59.07;20.97;;;;;;;;;;4928126;29;20050;-81
2022/12/20 12:32:36;;;;;;;62.73;22.93;;;;;;;;;;4942286;28;20221;-81
2022/12/20 12:35:18;;;;;;;49.77;19.93;;;;;;;;;;4944742;29;20035;-77
2022/12/20 12:38:00;;;;;;;57.13;18.90;;;;;;;;;;4924017;29;20063;-77
2022/12/20 12:40:51;;;;;;;62.28;21.45;;;;;;;;;;4940350;29;20060;-77
2022/12/20 12:43:39;;;;;;;59.03;20.80;;;;;;;;;;4941024;28;20107;-78
2022/12/20 12:46:31;;;;;;;54.27;20.93;;;;;;;;;;4931344;28;20069;-76
2022/12/20 12:49:01;;;;;;;55.80;20.55;;;;;;;;;;4942263;29;20042;-76
2022/12/20 12:51:36;;;;;;;60.50;21.63;;;;;;;;;;4943534;29;20043;-80
2022/12/20 12:54:24;;;;;;;60.07;20.40;;;;;;;;;;4938456;28;20249;-77
2022/12/20 12:57:02;;;;;;;55.53;19.50;;;;;;;;;;4929253;29;20054;-76
2022/12/20 12:59:33;;;;;;;53.47;19.37;;;;;;;;;;4945582;29;20039;-82
2022/12/20 13:02:23;;;;;;;57.47;19.83;;;;;;;;;;4943768;29;20058;-81
2022/12/20 13:05:11;;;;;;;53.27;20.80;;;;;;;;;;4930310;29;20027;-83
2022/12/20 13:07:44;;;;;;;60.67;21.17;;;;;;;;;;4947028;28;20025;-75
2022/12/20 13:10:19;;;;;;;50.67;19.17;;;;;;;;;;4942784;28;20355;-73
2022/12/20 13:12:59;;;;;;;58.20;20.87;;;;;;;;;;4945516;29;20027;-75
2022/12/20 13:15:25;;;;;;;58.17;21.33;;;;;;;;;;4920409;28;20043;-78
2022/12/20 13:17:59;;;;;;;59.73;21.87;;;;;;;;;;4951444;28;20035;-79
2022/12/20 13:20:33;;;;;;;43.23;17.30;;;;;;;;;;4946384;29;20049;-79
2022/12/20 13:23:12;;;;;;;49.87;17.83;;;;;;;;;;4948643;29;20039;-83
2022/12/20 13:25:39;;;;;;;55.87;19.57;;;;;;;;;;4929938;28;20030;-81
2022/12/20 13:28:28;;;;;;;49.80;19.00;;;;;;;;;;4950435;28;20152;-81
2022/12/20 13:31:00;;;;;;;50.80;18.87;;;;;;;;;;4944264;29;20142;-81
2022/12/20 13:33:42;;;;;;;55.90;20.67;;;;;;;;;;4933176;29;20030;-83
2022/12/20 13:36:08;;;;;;;58.60;18.83;;;;;;;;;;4949077;28;20101;-80
2022/12/20 13:38:51;;;;;;;54.70;19.97;;;;;;;;;;4939423;29;20654;-81
2022/12/20 13:41:38;;;;;;;46.67;19.13;;;;;;;;;;4943469;28;20480;-79
2022/12/20 13:44:13;;;;;;;43.60;16.97;;;;;;;;;;4943813;29;20058;-81
2022/12/20 13:46:48;;;;;;;53.77;19.27;;;;;;;;;;4944252;28;20150;-81
2022/12/20 13:49:41;;;;;;;55.53;20.13;;;;;;;;;;4935852;28;20053;-80
2022/12/20 13:52:10;;;;;;;53.23;20.83;;;;;;;;;;4947345;28;20126;-81
2022/12/20 13:54:42;;;;;;;46.37;18.57;;;;;;;;;;4932148;29;20432;-80
2022/12/20 13:57:14;;;;;;;55.95;20.95;;;;;;;;;;4944984;28;20051;-80
2022/12/20 13:59:45;;;;;;;47.50;16.90;;;;;;;;;;4940220;29;20039;-79
2022/12/20 14:02:18;;;;;;;59.23;20.30;;;;;;;;;;4946587;29;20031;-81
2022/12/20 14:04:50;;;;;;;46.20;18.70;;;;;;;;;;4949148;28;20134;-79
2022/12/20 14:07:17;;;;;;;52.47;18.55;;;;;;;;;;4935447;29;20038;-79
2022/12/20 14:09:55;;;;;;;58.30;21.07;;;;;;;;;;4940502;28;20038;-80
2022/12/20 14:12:21;;;;;;;44.20;16.73;;;;;;;;;;4946825;28;20043;-78
2022/12/20 14:14:48;;;;;;;51.37;19.17;;;;;;;;;;4945589;28;20035;-77
2022/12/20 14:17:25;;;;;;;53.57;20.40;;;;;;;;;;4939445;28;20149;-78
2022/12/20 14:20:15;;;;;;;54.70;19.33;;;;;;;;;;4939070;28;20031;-79
2022/12/20 14:23:05;;;;;;;49.33;18.23;;;;;;;;;;4925598;29;20341;-81
2022/12/20 14:25:41;;;;;;;58.73;21.30;;;;;;;;;;4949550;28;20380;-80
2022/12/20 14:28:34;;;;;;;45.90;18.00;;;;;;;;;;4948378;29;20027;-84
2022/12/20 14:31:02;;;;;;;56.03;19.87;;;;;;;;;;4927294;29;20162;-86
2022/12/20 14:33:27;;;;;;;62.33;24.10;;;;;;;;;;4938046;29;20135;-80
2022/12/20 14:35:53;;;;;;;57.70;21.00;;;;;;;;;;4934883;28;20019;-82
2022/12/20 14:38:22;;;;;;;50.83;18.50;;;;;;;;;;4944973;29;20436;-82
2022/12/20 14:40:47;;;;;;;48.80;17.53;;;;;;;;;;4938478;29;21252;-85
2022/12/20 14:43:15;;;;;;;57.43;19.53;;;;;;;;;;4936086;28;20138;-87
2022/12/20 14:45:40;;;;;;;51.90;19.73;;;;;;;;;;4950748;28;20548;-84
2022/12/20 14:48:15;;;;;;;63.87;21.53;;;;;;;;;;4954264;28;20035;-84
2022/12/20 14:50:51;;;;;;;50.80;20.77;;;;;;;;;;4952467;29;20438;-86